sensor_id;sensor_type;location;lat;lon;timestamp;P1;durP1;ratioP1;P2;durP2;ratioP2
57111;SDS011;42992;49.084;19.300;2023-03-23T00:00:45;39.83;;;21.63;;
57111;SDS011;42992;49.084;19.300;2023-03-23T00:03:12;39.13;;;19.60;;
57111;SDS011;42992;49.084;19.300;2023-03-23T00:05:39;33.30;;;17.80;;
57111;SDS011;42992;49.084;19.300;2023-03-23T00:08:51;24.52;;;14.60;;
57111;SDS011;42992;49.084;19.300;2023-03-23T00:11:39;28.52;;;14.75;;
57111;SDS011;42992;49.084;19.300;2023-03-23T00:14:04;23.00;;;14.02;;
57111;SDS011;42992;49.084;19.300;2023-03-23T00:16:32;24.67;;;15.13;;
57111;SDS011;42992;49.084;19.300;2023-03-23T00:21:24;20.75;;;14.32;;
57111;SDS011;42992;49.084;19.300;2023-03-23T00:29:51;21.10;;;13.50;;
57111;SDS011;42992;49.084;19.300;2023-03-23T00:32:35;20.70;;;12.88;;
57111;SDS011;42992;49.084;19.300;2023-03-23T00:35:06;21.27;;;13.18;;
57111;SDS011;42992;49.084;19.300;2023-03-23T00:37:33;22.58;;;13.68;;
57111;SDS011;42992;49.084;19.300;2023-03-23T00:40:20;25.05;;;14.35;;
57111;SDS011;42992;49.084;19.300;2023-03-23T00:42:47;26.13;;;14.32;;
57111;SDS011;42992;49.084;19.300;2023-03-23T00:45:13;24.27;;;13.82;;
57111;SDS011;42992;49.084;19.300;2023-03-23T00:47:40;30.60;;;15.05;;
57111;SDS011;42992;49.084;19.300;2023-03-23T00:50:07;25.65;;;14.32;;
57111;SDS011;42992;49.084;19.300;2023-03-23T00:52:32;25.17;;;15.32;;
57111;SDS011;42992;49.084;19.300;2023-03-23T00:54:58;27.30;;;15.32;;
57111;SDS011;42992;49.084;19.300;2023-03-23T00:57:44;29.27;;;15.00;;
57111;SDS011;42992;49.084;19.300;2023-03-23T01:00:28;25.13;;;13.63;;
57111;SDS011;42992;49.084;19.300;2023-03-23T01:02:54;21.02;;;13.57;;
57111;SDS011;42992;49.084;19.300;2023-03-23T01:05:21;20.70;;;13.38;;
57111;SDS011;42992;49.084;19.300;2023-03-23T01:08:05;19.92;;;11.77;;
57111;SDS011;42992;49.084;19.300;2023-03-23T01:10:32;22.48;;;12.43;;
57111;SDS011;42992;49.084;19.300;2023-03-23T01:12:59;23.88;;;13.20;;
57111;SDS011;42992;49.084;19.300;2023-03-23T01:15:29;19.30;;;11.52;;
57111;SDS011;42992;49.084;19.300;2023-03-23T01:18:05;17.60;;;11.60;;
57111;SDS011;42992;49.084;19.300;2023-03-23T01:20:36;22.23;;;12.27;;
57111;SDS011;42992;49.084;19.300;2023-03-23T01:23:23;22.05;;;13.10;;
57111;SDS011;42992;49.084;19.300;2023-03-23T01:25:51;21.55;;;13.18;;
57111;SDS011;42992;49.084;19.300;2023-03-23T01:28:22;23.50;;;13.77;;
57111;SDS011;42992;49.084;19.300;2023-03-23T01:31:29;23.88;;;13.38;;
57111;SDS011;42992;49.084;19.300;2023-03-23T01:34:19;20.65;;;12.35;;
57111;SDS011;42992;49.084;19.300;2023-03-23T01:36:44;24.13;;;13.40;;
57111;SDS011;42992;49.084;19.300;2023-03-23T01:39:12;20.02;;;12.65;;
57111;SDS011;42992;49.084;19.300;2023-03-23T01:41:37;21.38;;;12.40;;
57111;SDS011;42992;49.084;19.300;2023-03-23T01:44:07;19.08;;;12.45;;
57111;SDS011;42992;49.084;19.300;2023-03-23T01:46:56;23.13;;;12.98;;
57111;SDS011;42992;49.084;19.300;2023-03-23T01:55:07;31.42;;;15.20;;
57111;SDS011;42992;49.084;19.300;2023-03-23T01:57:33;23.17;;;14.23;;
57111;SDS011;42992;49.084;19.300;2023-03-23T02:00:01;23.48;;;13.50;;
57111;SDS011;42992;49.084;19.300;2023-03-23T02:03:06;27.23;;;13.07;;
57111;SDS011;42992;49.084;19.300;2023-03-23T02:05:35;21.90;;;12.98;;
57111;SDS011;42992;49.084;19.300;2023-03-23T02:08:20;20.13;;;13.25;;
57111;SDS011;42992;49.084;19.300;2023-03-23T02:10:51;28.45;;;14.18;;
57111;SDS011;42992;49.084;19.300;2023-03-23T02:13:49;23.00;;;14.60;;
57111;SDS011;42992;49.084;19.300;2023-03-23T02:19:35;23.50;;;13.90;;
57111;SDS011;42992;49.084;19.300;2023-03-23T02:34:27;19.15;;;12.73;;
57111;SDS011;42992;49.084;19.300;2023-03-23T02:37:06;22.52;;;13.10;;
57111;SDS011;42992;49.084;19.300;2023-03-23T02:40:14;25.58;;;13.20;;
57111;SDS011;42992;49.084;19.300;2023-03-23T02:43:18;26.88;;;13.15;;
57111;SDS011;42992;49.084;19.300;2023-03-23T02:45:45;24.85;;;13.38;;
57111;SDS011;42992;49.084;19.300;2023-03-23T02:48:13;24.42;;;13.18;;
57111;SDS011;42992;49.084;19.300;2023-03-23T02:51:00;20.55;;;12.20;;
57111;SDS011;42992;49.084;19.300;2023-03-23T02:53:34;25.95;;;13.77;;
57111;SDS011;42992;49.084;19.300;2023-03-23T02:56:38;25.63;;;13.73;;
57111;SDS011;42992;49.084;19.300;2023-03-23T02:59:04;22.77;;;13.00;;
57111;SDS011;42992;49.084;19.300;2023-03-23T03:03:58;19.70;;;12.23;;
57111;SDS011;42992;49.084;19.300;2023-03-23T03:10:04;22.33;;;12.52;;
57111;SDS011;42992;49.084;19.300;2023-03-23T03:13:14;23.13;;;12.38;;
57111;SDS011;42992;49.084;19.300;2023-03-23T03:15:44;20.35;;;12.75;;
57111;SDS011;42992;49.084;19.300;2023-03-23T03:18:47;20.05;;;12.43;;
57111;SDS011;42992;49.084;19.300;2023-03-23T03:21:15;22.77;;;14.13;;
57111;SDS011;42992;49.084;19.300;2023-03-23T03:23:45;22.83;;;14.18;;
57111;SDS011;42992;49.084;19.300;2023-03-23T03:26:16;19.77;;;12.35;;
57111;SDS011;42992;49.084;19.300;2023-03-23T03:29:28;21.73;;;12.48;;
57111;SDS011;42992;49.084;19.300;2023-03-23T03:31:59;20.95;;;12.60;;
57111;SDS011;42992;49.084;19.300;2023-03-23T03:35:03;21.77;;;12.98;;
57111;SDS011;42992;49.084;19.300;2023-03-23T03:37:42;21.08;;;13.80;;
57111;SDS011;42992;49.084;19.300;2023-03-23T03:40:46;21.80;;;12.93;;
57111;SDS011;42992;49.084;19.300;2023-03-23T03:43:13;23.23;;;13.48;;
57111;SDS011;42992;49.084;19.300;2023-03-23T03:45:39;22.95;;;13.32;;
57111;SDS011;42992;49.084;19.300;2023-03-23T03:48:06;20.00;;;12.57;;
57111;SDS011;42992;49.084;19.300;2023-03-23T03:50:32;24.65;;;14.60;;
57111;SDS011;42992;49.084;19.300;2023-03-23T03:52:59;24.52;;;15.05;;
57111;SDS011;42992;49.084;19.300;2023-03-23T03:55:26;28.23;;;15.38;;
57111;SDS011;42992;49.084;19.300;2023-03-23T03:57:53;30.75;;;17.15;;
57111;SDS011;42992;49.084;19.300;2023-03-23T04:00:20;28.40;;;15.90;;
57111;SDS011;42992;49.084;19.300;2023-03-23T04:02:48;25.85;;;14.82;;
57111;SDS011;42992;49.084;19.300;2023-03-23T04:05:16;23.45;;;13.40;;
57111;SDS011;42992;49.084;19.300;2023-03-23T04:07:44;23.98;;;14.35;;
57111;SDS011;42992;49.084;19.300;2023-03-23T04:10:10;26.40;;;13.75;;
57111;SDS011;42992;49.084;19.300;2023-03-23T04:12:38;24.83;;;14.73;;
57111;SDS011;42992;49.084;19.300;2023-03-23T04:15:05;26.95;;;16.27;;
57111;SDS011;42992;49.084;19.300;2023-03-23T04:17:34;29.90;;;17.55;;
57111;SDS011;42992;49.084;19.300;2023-03-23T04:20:06;25.80;;;15.20;;
57111;SDS011;42992;49.084;19.300;2023-03-23T04:22:51;23.38;;;13.55;;
57111;SDS011;42992;49.084;19.300;2023-03-23T04:25:20;23.67;;;14.05;;
57111;SDS011;42992;49.084;19.300;2023-03-23T04:27:47;25.52;;;14.90;;
57111;SDS011;42992;49.084;19.300;2023-03-23T04:30:17;23.52;;;14.15;;
57111;SDS011;42992;49.084;19.300;2023-03-23T04:32:51;23.48;;;12.90;;
57111;SDS011;42992;49.084;19.300;2023-03-23T04:35:36;22.33;;;13.07;;
57111;SDS011;42992;49.084;19.300;2023-03-23T04:38:02;18.55;;;12.15;;
57111;SDS011;42992;49.084;19.300;2023-03-23T04:40:29;22.35;;;12.57;;
57111;SDS011;42992;49.084;19.300;2023-03-23T04:42:56;23.92;;;12.60;;
57111;SDS011;42992;49.084;19.300;2023-03-23T04:45:42;23.58;;;13.52;;
57111;SDS011;42992;49.084;19.300;2023-03-23T04:48:10;20.77;;;12.73;;
57111;SDS011;42992;49.084;19.300;2023-03-23T04:50:36;26.90;;;13.63;;
57111;SDS011;42992;49.084;19.300;2023-03-23T04:53:03;25.00;;;14.65;;
57111;SDS011;42992;49.084;19.300;2023-03-23T04:58:34;24.50;;;14.05;;
57111;SDS011;42992;49.084;19.300;2023-03-23T05:01:21;23.38;;;13.88;;
57111;SDS011;42992;49.084;19.300;2023-03-23T05:03:47;23.50;;;14.50;;
57111;SDS011;42992;49.084;19.300;2023-03-23T05:06:13;26.08;;;16.10;;
57111;SDS011;42992;49.084;19.300;2023-03-23T05:09:01;28.52;;;17.58;;
57111;SDS011;42992;49.084;19.300;2023-03-23T05:11:26;23.50;;;14.85;;
57111;SDS011;42992;49.084;19.300;2023-03-23T05:13:51;27.85;;;15.30;;
57111;SDS011;42992;49.084;19.300;2023-03-23T05:16:40;30.88;;;15.93;;
57111;SDS011;42992;49.084;19.300;2023-03-23T05:19:05;34.30;;;22.95;;
57111;SDS011;42992;49.084;19.300;2023-03-23T05:21:33;35.30;;;23.80;;
57111;SDS011;42992;49.084;19.300;2023-03-23T05:24:18;32.88;;;19.35;;
57111;SDS011;42992;49.084;19.300;2023-03-23T05:29:28;29.08;;;20.58;;
57111;SDS011;42992;49.084;19.300;2023-03-23T05:44:04;28.38;;;15.52;;
57111;SDS011;42992;49.084;19.300;2023-03-23T05:47:07;28.67;;;15.45;;
57111;SDS011;42992;49.084;19.300;2023-03-23T05:49:58;26.67;;;14.68;;
57111;SDS011;42992;49.084;19.300;2023-03-23T05:53:01;26.25;;;15.02;;
57111;SDS011;42992;49.084;19.300;2023-03-23T05:55:45;24.80;;;14.40;;
57111;SDS011;42992;49.084;19.300;2023-03-23T05:58:26;25.77;;;14.52;;
57111;SDS011;42992;49.084;19.300;2023-03-23T06:00:51;21.55;;;13.93;;
57111;SDS011;42992;49.084;19.300;2023-03-23T06:03:17;23.25;;;13.95;;
57111;SDS011;42992;49.084;19.300;2023-03-23T06:08:46;22.45;;;13.27;;
57111;SDS011;42992;49.084;19.300;2023-03-23T06:11:15;22.42;;;13.40;;
57111;SDS011;42992;49.084;19.300;2023-03-23T06:13:41;22.35;;;13.20;;
57111;SDS011;42992;49.084;19.300;2023-03-23T06:16:07;25.63;;;13.98;;
57111;SDS011;42992;49.084;19.300;2023-03-23T06:18:34;26.52;;;15.48;;
57111;SDS011;42992;49.084;19.300;2023-03-23T06:21:06;21.88;;;13.50;;
57111;SDS011;42992;49.084;19.300;2023-03-23T06:23:51;25.17;;;13.60;;
57111;SDS011;42992;49.084;19.300;2023-03-23T06:26:19;23.92;;;12.50;;
57111;SDS011;42992;49.084;19.300;2023-03-23T06:28:51;23.55;;;13.25;;
57111;SDS011;42992;49.084;19.300;2023-03-23T06:31:17;23.02;;;14.40;;
57111;SDS011;42992;49.084;19.300;2023-03-23T06:34:02;26.42;;;13.10;;
57111;SDS011;42992;49.084;19.300;2023-03-23T06:39:36;25.38;;;14.10;;
57111;SDS011;42992;49.084;19.300;2023-03-23T06:42:57;25.30;;;13.40;;
57111;SDS011;42992;49.084;19.300;2023-03-23T06:46:23;23.42;;;13.93;;
57111;SDS011;42992;49.084;19.300;2023-03-23T07:01:28;22.67;;;13.00;;
57111;SDS011;42992;49.084;19.300;2023-03-23T07:04:02;23.90;;;12.18;;
57111;SDS011;42992;49.084;19.300;2023-03-23T07:06:34;20.52;;;12.98;;
57111;SDS011;42992;49.084;19.300;2023-03-23T07:16:48;21.05;;;13.00;;
57111;SDS011;42992;49.084;19.300;2023-03-23T07:19:15;25.35;;;14.05;;
57111;SDS011;42992;49.084;19.300;2023-03-23T07:21:41;21.45;;;13.32;;
57111;SDS011;42992;49.084;19.300;2023-03-23T07:24:10;21.73;;;12.73;;
57111;SDS011;42992;49.084;19.300;2023-03-23T07:26:38;26.65;;;12.85;;
57111;SDS011;42992;49.084;19.300;2023-03-23T07:29:06;21.15;;;12.05;;
57111;SDS011;42992;49.084;19.300;2023-03-23T07:31:37;25.85;;;13.43;;
57111;SDS011;42992;49.084;19.300;2023-03-23T07:34:03;21.02;;;9.75;;
57111;SDS011;42992;49.084;19.300;2023-03-23T07:36:31;24.42;;;12.52;;
57111;SDS011;42992;49.084;19.300;2023-03-23T07:38:56;20.83;;;11.27;;
57111;SDS011;42992;49.084;19.300;2023-03-23T07:41:25;19.67;;;11.10;;
57111;SDS011;42992;49.084;19.300;2023-03-23T07:43:53;18.77;;;10.05;;
57111;SDS011;42992;49.084;19.300;2023-03-23T07:46:19;20.50;;;9.50;;
57111;SDS011;42992;49.084;19.300;2023-03-23T07:48:47;16.02;;;9.57;;
57111;SDS011;42992;49.084;19.300;2023-03-23T07:51:27;23.80;;;9.63;;
57111;SDS011;42992;49.084;19.300;2023-03-23T07:53:58;18.60;;;9.27;;
57111;SDS011;42992;49.084;19.300;2023-03-23T07:56:24;16.75;;;9.63;;
57111;SDS011;42992;49.084;19.300;2023-03-23T07:58:54;17.15;;;8.68;;
57111;SDS011;42992;49.084;19.300;2023-03-23T08:01:47;15.02;;;8.40;;
57111;SDS011;42992;49.084;19.300;2023-03-23T08:09:05;23.17;;;9.32;;
57111;SDS011;42992;49.084;19.300;2023-03-23T08:14:44;20.65;;;8.52;;
57111;SDS011;42992;49.084;19.300;2023-03-23T08:17:45;16.67;;;8.45;;
57111;SDS011;42992;49.084;19.300;2023-03-23T08:20:59;15.10;;;9.15;;
57111;SDS011;42992;49.084;19.300;2023-03-23T08:23:43;20.20;;;8.63;;
57111;SDS011;42992;49.084;19.300;2023-03-23T08:26:59;21.65;;;8.70;;
57111;SDS011;42992;49.084;19.300;2023-03-23T08:29:34;23.92;;;9.80;;
57111;SDS011;42992;49.084;19.300;2023-03-23T08:47:36;14.27;;;7.50;;
57111;SDS011;42992;49.084;19.300;2023-03-23T09:00:46;14.13;;;8.27;;
57111;SDS011;42992;49.084;19.300;2023-03-23T09:07:08;15.95;;;8.52;;
57111;SDS011;42992;49.084;19.300;2023-03-23T09:10:32;15.32;;;7.95;;
57111;SDS011;42992;49.084;19.300;2023-03-23T09:13:38;15.30;;;8.15;;
57111;SDS011;42992;49.084;19.300;2023-03-23T09:22:52;17.15;;;8.25;;
57111;SDS011;42992;49.084;19.300;2023-03-23T09:57:25;14.55;;;8.10;;
57111;SDS011;42992;49.084;19.300;2023-03-23T10:09:35;19.35;;;6.55;;
57111;SDS011;42992;49.084;19.300;2023-03-23T10:12:23;12.30;;;5.50;;
57111;SDS011;42992;49.084;19.300;2023-03-23T10:17:37;10.95;;;5.55;;
57111;SDS011;42992;49.084;19.300;2023-03-23T10:20:20;11.93;;;5.72;;
57111;SDS011;42992;49.084;19.300;2023-03-23T10:25:33;8.43;;;3.83;;
57111;SDS011;42992;49.084;19.300;2023-03-23T10:30:57;5.35;;;3.03;;
57111;SDS011;42992;49.084;19.300;2023-03-23T10:33:29;19.25;;;4.05;;
57111;SDS011;42992;49.084;19.300;2023-03-23T10:35:57;10.98;;;3.83;;
57111;SDS011;42992;49.084;19.300;2023-03-23T10:38:26;7.80;;;3.30;;
57111;SDS011;42992;49.084;19.300;2023-03-23T10:40:55;7.63;;;3.53;;
57111;SDS011;42992;49.084;19.300;2023-03-23T10:43:21;6.53;;;3.55;;
57111;SDS011;42992;49.084;19.300;2023-03-23T10:45:49;7.53;;;3.33;;
57111;SDS011;42992;49.084;19.300;2023-03-23T10:48:17;10.73;;;3.88;;
57111;SDS011;42992;49.084;19.300;2023-03-23T10:50:45;5.72;;;2.92;;
57111;SDS011;42992;49.084;19.300;2023-03-23T10:53:14;8.48;;;3.33;;
57111;SDS011;42992;49.084;19.300;2023-03-23T10:55:41;9.95;;;3.53;;
57111;SDS011;42992;49.084;19.300;2023-03-23T10:58:13;6.47;;;3.25;;
57111;SDS011;42992;49.084;19.300;2023-03-23T11:00:46;7.35;;;3.20;;
57111;SDS011;42992;49.084;19.300;2023-03-23T11:05:50;8.05;;;3.30;;
57111;SDS011;42992;49.084;19.300;2023-03-23T11:08:20;6.75;;;2.92;;
57111;SDS011;42992;49.084;19.300;2023-03-23T11:10:50;6.78;;;3.33;;
57111;SDS011;42992;49.084;19.300;2023-03-23T11:13:16;5.50;;;2.90;;
57111;SDS011;42992;49.084;19.300;2023-03-23T11:15:42;5.78;;;3.40;;
57111;SDS011;42992;49.084;19.300;2023-03-23T11:18:11;7.85;;;3.42;;
57111;SDS011;42992;49.084;19.300;2023-03-23T11:20:39;5.25;;;3.17;;
57111;SDS011;42992;49.084;19.300;2023-03-23T11:23:49;5.22;;;2.90;;
57111;SDS011;42992;49.084;19.300;2023-03-23T11:28:31;5.32;;;3.40;;
57111;SDS011;42992;49.084;19.300;2023-03-23T11:30:57;6.35;;;2.80;;
57111;SDS011;42992;49.084;19.300;2023-03-23T11:33:23;10.60;;;3.00;;
57111;SDS011;42992;49.084;19.300;2023-03-23T11:35:50;4.97;;;2.65;;
57111;SDS011;42992;49.084;19.300;2023-03-23T11:38:18;7.28;;;3.45;;
57111;SDS011;42992;49.084;19.300;2023-03-23T11:40:48;5.05;;;2.95;;
57111;SDS011;42992;49.084;19.300;2023-03-23T11:43:14;5.95;;;2.90;;
57111;SDS011;42992;49.084;19.300;2023-03-23T11:51:08;6.43;;;2.97;;
57111;SDS011;42992;49.084;19.300;2023-03-23T11:53:45;9.30;;;3.40;;
57111;SDS011;42992;49.084;19.300;2023-03-23T11:58:37;8.98;;;3.45;;
57111;SDS011;42992;49.084;19.300;2023-03-23T12:01:05;4.53;;;2.60;;
57111;SDS011;42992;49.084;19.300;2023-03-23T12:03:36;7.03;;;3.10;;
57111;SDS011;42992;49.084;19.300;2023-03-23T12:13:53;4.70;;;2.63;;
57111;SDS011;42992;49.084;19.300;2023-03-23T12:19:03;7.65;;;2.80;;
57111;SDS011;42992;49.084;19.300;2023-03-23T12:21:41;4.75;;;2.75;;
57111;SDS011;42992;49.084;19.300;2023-03-23T12:26:37;7.53;;;3.10;;
57111;SDS011;42992;49.084;19.300;2023-03-23T12:29:10;9.85;;;3.10;;
57111;SDS011;42992;49.084;19.300;2023-03-23T12:41:51;7.43;;;3.50;;
57111;SDS011;42992;49.084;19.300;2023-03-23T12:44:20;7.13;;;3.10;;
57111;SDS011;42992;49.084;19.300;2023-03-23T12:54:39;6.40;;;3.13;;
57111;SDS011;42992;49.084;19.300;2023-03-23T12:59:40;6.80;;;3.33;;
57111;SDS011;42992;49.084;19.300;2023-03-23T13:04:42;6.72;;;3.33;;
57111;SDS011;42992;49.084;19.300;2023-03-23T13:07:14;8.15;;;3.47;;
57111;SDS011;42992;49.084;19.300;2023-03-23T13:12:13;7.68;;;3.05;;
57111;SDS011;42992;49.084;19.300;2023-03-23T13:17:40;7.85;;;2.90;;
57111;SDS011;42992;49.084;19.300;2023-03-23T13:25:18;9.55;;;3.35;;
57111;SDS011;42992;49.084;19.300;2023-03-23T13:27:44;8.57;;;3.60;;
57111;SDS011;42992;49.084;19.300;2023-03-23T13:30:21;9.88;;;3.50;;
57111;SDS011;42992;49.084;19.300;2023-03-23T13:32:47;8.18;;;3.50;;
57111;SDS011;42992;49.084;19.300;2023-03-23T13:35:13;8.15;;;3.30;;
57111;SDS011;42992;49.084;19.300;2023-03-23T13:37:44;5.47;;;3.30;;
57111;SDS011;42992;49.084;19.300;2023-03-23T13:42:47;7.47;;;3.22;;
57111;SDS011;42992;49.084;19.300;2023-03-23T13:47:44;7.35;;;3.35;;
57111;SDS011;42992;49.084;19.300;2023-03-23T13:55:27;6.35;;;3.08;;
57111;SDS011;42992;49.084;19.300;2023-03-23T13:57:54;7.57;;;3.33;;
57111;SDS011;42992;49.084;19.300;2023-03-23T14:02:49;8.10;;;3.13;;
57111;SDS011;42992;49.084;19.300;2023-03-23T14:10:56;8.68;;;3.30;;
57111;SDS011;42992;49.084;19.300;2023-03-23T14:16:24;6.32;;;3.00;;
57111;SDS011;42992;49.084;19.300;2023-03-23T14:18:55;6.32;;;3.10;;
57111;SDS011;42992;49.084;19.300;2023-03-23T14:21:34;5.78;;;2.70;;
57111;SDS011;42992;49.084;19.300;2023-03-23T14:24:01;6.13;;;3.40;;
57111;SDS011;42992;49.084;19.300;2023-03-23T14:26:26;8.07;;;2.90;;
57111;SDS011;42992;49.084;19.300;2023-03-23T14:28:52;8.70;;;2.88;;
57111;SDS011;42992;49.084;19.300;2023-03-23T14:31:19;6.43;;;2.85;;
57111;SDS011;42992;49.084;19.300;2023-03-23T14:33:44;6.70;;;2.67;;
57111;SDS011;42992;49.084;19.300;2023-03-23T14:36:10;7.82;;;3.17;;
57111;SDS011;42992;49.084;19.300;2023-03-23T14:38:35;9.30;;;3.22;;
57111;SDS011;42992;49.084;19.300;2023-03-23T14:41:03;7.95;;;2.88;;
57111;SDS011;42992;49.084;19.300;2023-03-23T14:43:30;6.43;;;2.95;;
57111;SDS011;42992;49.084;19.300;2023-03-23T14:45:56;6.13;;;2.90;;
57111;SDS011;42992;49.084;19.300;2023-03-23T14:48:23;5.35;;;2.83;;
57111;SDS011;42992;49.084;19.300;2023-03-23T14:50:49;7.20;;;3.58;;
57111;SDS011;42992;49.084;19.300;2023-03-23T14:53:21;4.90;;;3.00;;
57111;SDS011;42992;49.084;19.300;2023-03-23T14:55:47;4.22;;;2.60;;
57111;SDS011;42992;49.084;19.300;2023-03-23T14:58:13;7.15;;;2.88;;
57111;SDS011;42992;49.084;19.300;2023-03-23T15:00:40;7.70;;;3.15;;
57111;SDS011;42992;49.084;19.300;2023-03-23T15:03:09;5.53;;;3.17;;
57111;SDS011;42992;49.084;19.300;2023-03-23T15:05:37;6.53;;;2.78;;
57111;SDS011;42992;49.084;19.300;2023-03-23T15:08:10;9.10;;;3.97;;
57111;SDS011;42992;49.084;19.300;2023-03-23T15:10:36;6.72;;;3.00;;
57111;SDS011;42992;49.084;19.300;2023-03-23T15:13:01;7.47;;;3.00;;
57111;SDS011;42992;49.084;19.300;2023-03-23T15:15:28;6.07;;;3.00;;
57111;SDS011;42992;49.084;19.300;2023-03-23T15:17:54;9.27;;;3.60;;
57111;SDS011;42992;49.084;19.300;2023-03-23T15:20:30;6.72;;;3.35;;
57111;SDS011;42992;49.084;19.300;2023-03-23T15:22:57;4.65;;;3.20;;
57111;SDS011;42992;49.084;19.300;2023-03-23T15:25:30;4.82;;;3.00;;
57111;SDS011;42992;49.084;19.300;2023-03-23T15:27:57;6.45;;;3.30;;
57111;SDS011;42992;49.084;19.300;2023-03-23T15:32:49;7.17;;;2.90;;
57111;SDS011;42992;49.084;19.300;2023-03-23T15:35:21;6.72;;;3.08;;
57111;SDS011;42992;49.084;19.300;2023-03-23T15:37:48;7.05;;;3.10;;
57111;SDS011;42992;49.084;19.300;2023-03-23T15:40:15;6.78;;;2.90;;
57111;SDS011;42992;49.084;19.300;2023-03-23T15:42:41;9.15;;;3.25;;
57111;SDS011;42992;49.084;19.300;2023-03-23T15:50:12;4.95;;;2.90;;
57111;SDS011;42992;49.084;19.300;2023-03-23T15:52:38;17.80;;;3.60;;
57111;SDS011;42992;49.084;19.300;2023-03-23T15:55:14;8.82;;;2.95;;
57111;SDS011;42992;49.084;19.300;2023-03-23T15:57:43;7.05;;;3.10;;
57111;SDS011;42992;49.084;19.300;2023-03-23T16:00:08;5.95;;;3.25;;
57111;SDS011;42992;49.084;19.300;2023-03-23T16:02:33;10.80;;;3.00;;
57111;SDS011;42992;49.084;19.300;2023-03-23T16:05:00;6.13;;;2.60;;
57111;SDS011;42992;49.084;19.300;2023-03-23T16:07:25;4.55;;;2.53;;
57111;SDS011;42992;49.084;19.300;2023-03-23T16:09:50;5.43;;;3.28;;
57111;SDS011;42992;49.084;19.300;2023-03-23T16:12:16;7.50;;;3.80;;
57111;SDS011;42992;49.084;19.300;2023-03-23T16:14:41;6.40;;;3.47;;
57111;SDS011;42992;49.084;19.300;2023-03-23T16:17:09;5.18;;;2.95;;
57111;SDS011;42992;49.084;19.300;2023-03-23T16:19:35;6.78;;;3.10;;
57111;SDS011;42992;49.084;19.300;2023-03-23T16:22:00;10.15;;;3.20;;
57111;SDS011;42992;49.084;19.300;2023-03-23T16:24:25;7.28;;;3.45;;
57111;SDS011;42992;49.084;19.300;2023-03-23T16:26:50;8.88;;;3.22;;
57111;SDS011;42992;49.084;19.300;2023-03-23T16:29:16;12.45;;;4.00;;
57111;SDS011;42992;49.084;19.300;2023-03-23T16:31:41;8.15;;;3.42;;
57111;SDS011;42992;49.084;19.300;2023-03-23T16:34:07;5.80;;;3.28;;
57111;SDS011;42992;49.084;19.300;2023-03-23T16:36:32;7.75;;;3.78;;
57111;SDS011;42992;49.084;19.300;2023-03-23T16:38:58;12.68;;;4.90;;
57111;SDS011;42992;49.084;19.300;2023-03-23T16:41:23;9.20;;;4.55;;
57111;SDS011;42992;49.084;19.300;2023-03-23T16:43:48;7.68;;;4.47;;
57111;SDS011;42992;49.084;19.300;2023-03-23T16:46:14;7.13;;;3.28;;
57111;SDS011;42992;49.084;19.300;2023-03-23T16:48:39;8.45;;;3.50;;
57111;SDS011;42992;49.084;19.300;2023-03-23T16:51:04;6.75;;;3.40;;
57111;SDS011;42992;49.084;19.300;2023-03-23T16:53:48;14.02;;;3.78;;
57111;SDS011;42992;49.084;19.300;2023-03-23T16:56:14;10.75;;;5.05;;
57111;SDS011;42992;49.084;19.300;2023-03-23T18:07:34;20.63;;;11.70;;
57111;SDS011;42992;49.084;19.300;2023-03-23T18:10:26;15.25;;;10.13;;
57111;SDS011;42992;49.084;19.300;2023-03-23T18:27:16;20.83;;;11.60;;
57111;SDS011;42992;49.084;19.300;2023-03-23T18:30:10;17.55;;;11.35;;
57111;SDS011;42992;49.084;19.300;2023-03-23T18:32:43;22.10;;;12.35;;
57111;SDS011;42992;49.084;19.300;2023-03-23T18:35:54;31.52;;;18.70;;
57111;SDS011;42992;49.084;19.300;2023-03-23T18:52:57;35.10;;;16.98;;
57111;SDS011;42992;49.084;19.300;2023-03-23T18:55:27;42.58;;;23.17;;
57111;SDS011;42992;49.084;19.300;2023-03-23T18:58:24;31.27;;;15.82;;
57111;SDS011;42992;49.084;19.300;2023-03-23T19:00:55;25.45;;;12.80;;
57111;SDS011;42992;49.084;19.300;2023-03-23T19:24:26;19.25;;;9.77;;
57111;SDS011;42992;49.084;19.300;2023-03-23T19:33:44;27.60;;;13.52;;
57111;SDS011;42992;49.084;19.300;2023-03-23T19:39:12;19.80;;;10.63;;
57111;SDS011;42992;49.084;19.300;2023-03-23T19:41:45;21.70;;;10.23;;
57111;SDS011;42992;49.084;19.300;2023-03-23T19:47:44;25.25;;;12.60;;
57111;SDS011;42992;49.084;19.300;2023-03-23T19:50:35;39.85;;;20.00;;
57111;SDS011;42992;49.084;19.300;2023-03-23T19:53:43;21.55;;;12.57;;
57111;SDS011;42992;49.084;19.300;2023-03-23T19:56:44;25.35;;;11.45;;
57111;SDS011;42992;49.084;19.300;2023-03-23T19:59:18;24.88;;;14.57;;
57111;SDS011;42992;49.084;19.300;2023-03-23T20:06:44;28.50;;;13.43;;
57111;SDS011;42992;49.084;19.300;2023-03-23T20:09:51;29.13;;;15.48;;
57111;SDS011;42992;49.084;19.300;2023-03-23T20:12:22;25.55;;;14.68;;
57111;SDS011;42992;49.084;19.300;2023-03-23T20:58:08;43.35;;;24.42;;
57111;SDS011;42992;49.084;19.300;2023-03-23T21:01:20;42.85;;;23.75;;
57111;SDS011;42992;49.084;19.300;2023-03-23T21:03:58;43.33;;;21.08;;
57111;SDS011;42992;49.084;19.300;2023-03-23T21:06:56;27.30;;;15.32;;
57111;SDS011;42992;49.084;19.300;2023-03-23T21:09:38;34.75;;;17.17;;
57111;SDS011;42992;49.084;19.300;2023-03-23T21:15:32;41.33;;;23.50;;
57111;SDS011;42992;49.084;19.300;2023-03-23T21:18:24;40.72;;;18.85;;
57111;SDS011;42992;49.084;19.300;2023-03-23T21:20:56;40.25;;;23.13;;
57111;SDS011;42992;49.084;19.300;2023-03-23T21:23:57;44.47;;;24.05;;
57111;SDS011;42992;49.084;19.300;2023-03-23T21:26:39;41.55;;;24.15;;
57111;SDS011;42992;49.084;19.300;2023-03-23T21:29:12;38.08;;;22.23;;
57111;SDS011;42992;49.084;19.300;2023-03-23T21:31:40;40.33;;;22.80;;
57111;SDS011;42992;49.084;19.300;2023-03-23T21:34:26;36.00;;;20.65;;
57111;SDS011;42992;49.084;19.300;2023-03-23T21:36:58;31.67;;;19.45;;
57111;SDS011;42992;49.084;19.300;2023-03-23T21:51:25;47.47;;;25.15;;
57111;SDS011;42992;49.084;19.300;2023-03-23T21:53:58;43.63;;;24.23;;
57111;SDS011;42992;49.084;19.300;2023-03-23T21:56:42;45.60;;;25.50;;
57111;SDS011;42992;49.084;19.300;2023-03-23T22:35:48;43.40;;;23.55;;
57111;SDS011;42992;49.084;19.300;2023-03-23T23:27:34;33.17;;;17.50;;
57111;SDS011;42992;49.084;19.300;2023-03-23T23:33:35;34.78;;;19.05;;
57111;SDS011;42992;49.084;19.300;2023-03-23T23:38:46;32.50;;;19.42;;
57111;SDS011;42992;49.084;19.300;2023-03-23T23:41:45;36.13;;;20.20;;
57111;SDS011;42992;49.084;19.300;2023-03-23T23:46:53;38.25;;;20.23;;
57111;SDS011;42992;49.084;19.300;2023-03-23T23:49:23;31.35;;;16.42;;
57111;SDS011;42992;49.084;19.300;2023-03-23T23:52:10;21.92;;;11.57;;
57111;SDS011;42992;49.084;19.300;2023-03-23T23:54:41;21.17;;;11.68;;
57111;SDS011;42992;49.084;19.300;2023-03-23T23:57:11;27.08;;;12.77;;
57111;SDS011;42992;49.084;19.300;2023-03-23T23:59:41;22.77;;;12.95;;
